sensor_id;sensor_type;location;lat;lon;timestamp;P1;durP1;ratioP1;P2;durP2;ratioP2
4565;SDS011;2295;51.050;14.608;2022-07-04T00:01:29;4.07;;;3.67;;
4565;SDS011;2295;51.050;14.608;2022-07-04T00:03:59;4.10;;;3.70;;
4565;SDS011;2295;51.050;14.608;2022-07-04T00:06:27;6.40;;;5.43;;
4565;SDS011;2295;51.050;14.608;2022-07-04T00:08:55;4.13;;;3.83;;
4565;SDS011;2295;51.050;14.608;2022-07-04T00:11:23;4.57;;;4.17;;
4565;SDS011;2295;51.050;14.608;2022-07-04T00:13:52;6.33;;;5.83;;
4565;SDS011;2295;51.050;14.608;2022-07-04T00:16:20;4.20;;;3.90;;
4565;SDS011;2295;51.050;14.608;2022-07-04T00:18:49;4.67;;;4.27;;
4565;SDS011;2295;51.050;14.608;2022-07-04T00:21:19;10.27;;;8.80;;
4565;SDS011;2295;51.050;14.608;2022-07-04T00:23:47;23.87;;;18.63;;
4565;SDS011;2295;51.050;14.608;2022-07-04T00:26:16;31.27;;;24.70;;
4565;SDS011;2295;51.050;14.608;2022-07-04T00:28:44;28.00;;;21.13;;
4565;SDS011;2295;51.050;14.608;2022-07-04T00:31:13;5.93;;;5.37;;
4565;SDS011;2295;51.050;14.608;2022-07-04T00:33:41;13.80;;;10.70;;
4565;SDS011;2295;51.050;14.608;2022-07-04T00:36:10;21.07;;;18.87;;
4565;SDS011;2295;51.050;14.608;2022-07-04T00:38:40;64.17;;;47.10;;
4565;SDS011;2295;51.050;14.608;2022-07-04T00:41:09;29.50;;;23.13;;
4565;SDS011;2295;51.050;14.608;2022-07-04T00:43:37;40.80;;;30.47;;
4565;SDS011;2295;51.050;14.608;2022-07-04T00:46:26;43.63;;;32.93;;
4565;SDS011;2295;51.050;14.608;2022-07-04T00:48:54;60.33;;;43.47;;
4565;SDS011;2295;51.050;14.608;2022-07-04T00:51:23;54.23;;;40.27;;
4565;SDS011;2295;51.050;14.608;2022-07-04T00:53:54;45.43;;;33.73;;
4565;SDS011;2295;51.050;14.608;2022-07-04T00:56:23;26.73;;;20.43;;
4565;SDS011;2295;51.050;14.608;2022-07-04T00:58:52;30.20;;;23.23;;
4565;SDS011;2295;51.050;14.608;2022-07-04T01:01:21;24.07;;;20.50;;
4565;SDS011;2295;51.050;14.608;2022-07-04T01:03:49;13.73;;;10.10;;
4565;SDS011;2295;51.050;14.608;2022-07-04T01:06:18;8.53;;;7.73;;
4565;SDS011;2295;51.050;14.608;2022-07-04T01:08:46;9.03;;;8.20;;
4565;SDS011;2295;51.050;14.608;2022-07-04T01:11:16;6.90;;;6.27;;
4565;SDS011;2295;51.050;14.608;2022-07-04T01:13:44;6.70;;;5.30;;
4565;SDS011;2295;51.050;14.608;2022-07-04T01:16:12;6.97;;;6.27;;
4565;SDS011;2295;51.050;14.608;2022-07-04T01:18:41;4.60;;;4.30;;
4565;SDS011;2295;51.050;14.608;2022-07-04T01:21:11;5.07;;;4.67;;
4565;SDS011;2295;51.050;14.608;2022-07-04T01:23:39;5.10;;;4.70;;
4565;SDS011;2295;51.050;14.608;2022-07-04T01:26:08;6.50;;;4.53;;
4565;SDS011;2295;51.050;14.608;2022-07-04T01:28:36;6.10;;;4.23;;
4565;SDS011;2295;51.050;14.608;2022-07-04T01:31:05;5.00;;;4.63;;
4565;SDS011;2295;51.050;14.608;2022-07-04T01:33:33;5.13;;;4.70;;
4565;SDS011;2295;51.050;14.608;2022-07-04T01:36:01;4.40;;;4.00;;
4565;SDS011;2295;51.050;14.608;2022-07-04T01:38:32;4.40;;;4.07;;
4565;SDS011;2295;51.050;14.608;2022-07-04T01:41:00;4.17;;;3.87;;
4565;SDS011;2295;51.050;14.608;2022-07-04T01:43:28;8.23;;;4.13;;
4565;SDS011;2295;51.050;14.608;2022-07-04T01:45:56;4.93;;;4.20;;
4565;SDS011;2295;51.050;14.608;2022-07-04T01:48:25;4.47;;;4.17;;
4565;SDS011;2295;51.050;14.608;2022-07-04T01:50:53;4.23;;;3.93;;
4565;SDS011;2295;51.050;14.608;2022-07-04T01:53:21;6.17;;;3.90;;
4565;SDS011;2295;51.050;14.608;2022-07-04T01:55:50;4.53;;;4.20;;
4565;SDS011;2295;51.050;14.608;2022-07-04T01:58:18;4.87;;;4.53;;
4565;SDS011;2295;51.050;14.608;2022-07-04T02:00:47;4.23;;;3.93;;
4565;SDS011;2295;51.050;14.608;2022-07-04T02:03:32;4.13;;;3.93;;
4565;SDS011;2295;51.050;14.608;2022-07-04T02:06:00;8.23;;;3.85;;
4565;SDS011;2295;51.050;14.608;2022-07-04T02:08:29;7.18;;;3.90;;
4565;SDS011;2295;51.050;14.608;2022-07-04T02:11:19;6.77;;;4.10;;
4565;SDS011;2295;51.050;14.608;2022-07-04T02:13:47;7.73;;;4.57;;
4565;SDS011;2295;51.050;14.608;2022-07-04T02:16:14;4.40;;;3.80;;
4565;SDS011;2295;51.050;14.608;2022-07-04T02:18:43;4.25;;;3.95;;
4565;SDS011;2295;51.050;14.608;2022-07-04T02:21:11;3.73;;;3.40;;
4565;SDS011;2295;51.050;14.608;2022-07-04T02:23:39;5.53;;;3.80;;
4565;SDS011;2295;51.050;14.608;2022-07-04T02:26:07;5.57;;;3.90;;
4565;SDS011;2295;51.050;14.608;2022-07-04T02:28:37;4.13;;;3.73;;
4565;SDS011;2295;51.050;14.608;2022-07-04T02:31:05;4.27;;;3.97;;
4565;SDS011;2295;51.050;14.608;2022-07-04T02:33:34;4.23;;;3.63;;
4565;SDS011;2295;51.050;14.608;2022-07-04T02:36:03;3.60;;;3.40;;
4565;SDS011;2295;51.050;14.608;2022-07-04T02:38:32;4.30;;;3.60;;
4565;SDS011;2295;51.050;14.608;2022-07-04T02:41:00;4.70;;;3.90;;
4565;SDS011;2295;51.050;14.608;2022-07-04T02:43:28;5.33;;;4.33;;
4565;SDS011;2295;51.050;14.608;2022-07-04T02:45:57;5.17;;;3.60;;
4565;SDS011;2295;51.050;14.608;2022-07-04T02:48:26;3.70;;;3.50;;
4565;SDS011;2295;51.050;14.608;2022-07-04T02:50:54;4.15;;;3.80;;
4565;SDS011;2295;51.050;14.608;2022-07-04T02:53:22;3.97;;;3.77;;
4565;SDS011;2295;51.050;14.608;2022-07-04T02:55:50;3.93;;;3.70;;
4565;SDS011;2295;51.050;14.608;2022-07-04T02:58:19;5.67;;;3.63;;
4565;SDS011;2295;51.050;14.608;2022-07-04T03:00:47;3.88;;;3.67;;
4565;SDS011;2295;51.050;14.608;2022-07-04T03:03:16;4.70;;;3.77;;
4565;SDS011;2295;51.050;14.608;2022-07-04T03:05:45;4.10;;;3.80;;
4565;SDS011;2295;51.050;14.608;2022-07-04T03:08:13;4.32;;;3.92;;
4565;SDS011;2295;51.050;14.608;2022-07-04T03:10:41;4.40;;;4.10;;
4565;SDS011;2295;51.050;14.608;2022-07-04T03:13:09;3.70;;;3.40;;
4565;SDS011;2295;51.050;14.608;2022-07-04T03:15:38;5.03;;;3.92;;
4565;SDS011;2295;51.050;14.608;2022-07-04T03:18:06;4.15;;;3.17;;
4565;SDS011;2295;51.050;14.608;2022-07-04T03:20:35;11.15;;;3.78;;
4565;SDS011;2295;51.050;14.608;2022-07-04T03:23:03;7.80;;;3.80;;
4565;SDS011;2295;51.050;14.608;2022-07-04T03:25:32;3.70;;;3.47;;
4565;SDS011;2295;51.050;14.608;2022-07-04T03:28:00;4.10;;;3.80;;
4565;SDS011;2295;51.050;14.608;2022-07-04T03:30:29;4.03;;;3.60;;
4565;SDS011;2295;51.050;14.608;2022-07-04T03:32:57;6.63;;;4.30;;
4565;SDS011;2295;51.050;14.608;2022-07-04T03:35:26;14.32;;;4.10;;
4565;SDS011;2295;51.050;14.608;2022-07-04T03:37:55;4.60;;;4.10;;
4565;SDS011;2295;51.050;14.608;2022-07-04T03:40:23;6.57;;;3.80;;
4565;SDS011;2295;51.050;14.608;2022-07-04T03:42:54;5.90;;;3.37;;
4565;SDS011;2295;51.050;14.608;2022-07-04T03:45:22;5.80;;;3.30;;
4565;SDS011;2295;51.050;14.608;2022-07-04T03:47:50;3.60;;;3.30;;
4565;SDS011;2295;51.050;14.608;2022-07-04T03:50:19;4.00;;;3.70;;
4565;SDS011;2295;51.050;14.608;2022-07-04T03:52:47;9.40;;;5.10;;
4565;SDS011;2295;51.050;14.608;2022-07-04T03:55:17;13.07;;;6.77;;
4565;SDS011;2295;51.050;14.608;2022-07-04T03:57:45;14.90;;;6.53;;
4565;SDS011;2295;51.050;14.608;2022-07-04T04:00:14;18.13;;;6.50;;
4565;SDS011;2295;51.050;14.608;2022-07-04T04:02:42;19.50;;;7.00;;
4565;SDS011;2295;51.050;14.608;2022-07-04T04:05:13;14.17;;;6.50;;
4565;SDS011;2295;51.050;14.608;2022-07-04T04:07:53;74.57;;;19.13;;
4565;SDS011;2295;51.050;14.608;2022-07-04T04:10:24;11.43;;;4.20;;
4565;SDS011;2295;51.050;14.608;2022-07-04T04:12:53;3.70;;;3.27;;
4565;SDS011;2295;51.050;14.608;2022-07-04T04:15:21;4.63;;;3.20;;
4565;SDS011;2295;51.050;14.608;2022-07-04T04:17:50;4.23;;;3.20;;
4565;SDS011;2295;51.050;14.608;2022-07-04T04:20:18;3.17;;;2.97;;
4565;SDS011;2295;51.050;14.608;2022-07-04T04:22:46;2.90;;;2.70;;
4565;SDS011;2295;51.050;14.608;2022-07-04T04:25:16;3.20;;;2.90;;
4565;SDS011;2295;51.050;14.608;2022-07-04T04:27:46;3.87;;;2.70;;
4565;SDS011;2295;51.050;14.608;2022-07-04T04:30:14;2.87;;;2.67;;
4565;SDS011;2295;51.050;14.608;2022-07-04T04:32:42;3.40;;;2.80;;
4565;SDS011;2295;51.050;14.608;2022-07-04T04:35:10;3.77;;;2.50;;
4565;SDS011;2295;51.050;14.608;2022-07-04T04:37:38;3.03;;;2.73;;
4565;SDS011;2295;51.050;14.608;2022-07-04T04:40:07;2.80;;;2.57;;
4565;SDS011;2295;51.050;14.608;2022-07-04T04:42:36;4.07;;;2.77;;
4565;SDS011;2295;51.050;14.608;2022-07-04T04:45:06;3.37;;;2.40;;
4565;SDS011;2295;51.050;14.608;2022-07-04T04:47:35;3.73;;;2.47;;
4565;SDS011;2295;51.050;14.608;2022-07-04T04:50:03;2.50;;;2.40;;
4565;SDS011;2295;51.050;14.608;2022-07-04T04:52:32;2.47;;;2.13;;
4565;SDS011;2295;51.050;14.608;2022-07-04T04:55:00;3.13;;;2.67;;
4565;SDS011;2295;51.050;14.608;2022-07-04T04:57:28;2.27;;;2.17;;
4565;SDS011;2295;51.050;14.608;2022-07-04T04:59:56;2.70;;;2.47;;
4565;SDS011;2295;51.050;14.608;2022-07-04T05:02:26;5.93;;;2.37;;
4565;SDS011;2295;51.050;14.608;2022-07-04T05:04:54;2.60;;;2.40;;
4565;SDS011;2295;51.050;14.608;2022-07-04T05:07:22;4.93;;;2.50;;
4565;SDS011;2295;51.050;14.608;2022-07-04T05:09:50;3.10;;;2.10;;
4565;SDS011;2295;51.050;14.608;2022-07-04T05:12:24;2.47;;;2.27;;
4565;SDS011;2295;51.050;14.608;2022-07-04T05:14:53;5.60;;;2.13;;
4565;SDS011;2295;51.050;14.608;2022-07-04T05:17:21;1.93;;;1.83;;
4565;SDS011;2295;51.050;14.608;2022-07-04T05:19:52;3.20;;;2.00;;
4565;SDS011;2295;51.050;14.608;2022-07-04T05:22:20;2.40;;;2.20;;
4565;SDS011;2295;51.050;14.608;2022-07-04T05:24:48;2.63;;;1.80;;
4565;SDS011;2295;51.050;14.608;2022-07-04T05:27:16;3.00;;;2.23;;
4565;SDS011;2295;51.050;14.608;2022-07-04T05:29:44;2.83;;;1.50;;
4565;SDS011;2295;51.050;14.608;2022-07-04T05:32:19;2.70;;;1.70;;
4565;SDS011;2295;51.050;14.608;2022-07-04T05:34:48;1.60;;;1.50;;
4565;SDS011;2295;51.050;14.608;2022-07-04T05:37:18;3.00;;;1.50;;
4565;SDS011;2295;51.050;14.608;2022-07-04T05:39:46;6.50;;;1.67;;
4565;SDS011;2295;51.050;14.608;2022-07-04T05:42:14;7.10;;;1.80;;
4565;SDS011;2295;51.050;14.608;2022-07-04T05:44:43;1.60;;;1.50;;
4565;SDS011;2295;51.050;14.608;2022-07-04T05:47:12;3.93;;;2.03;;
4565;SDS011;2295;51.050;14.608;2022-07-04T05:49:41;4.53;;;1.70;;
4565;SDS011;2295;51.050;14.608;2022-07-04T05:52:09;1.67;;;1.57;;
4565;SDS011;2295;51.050;14.608;2022-07-04T05:54:38;3.30;;;2.10;;
4565;SDS011;2295;51.050;14.608;2022-07-04T05:57:07;1.70;;;1.53;;
4565;SDS011;2295;51.050;14.608;2022-07-04T05:59:35;1.57;;;1.47;;
4565;SDS011;2295;51.050;14.608;2022-07-04T06:02:03;3.60;;;1.23;;
4565;SDS011;2295;51.050;14.608;2022-07-04T06:04:32;5.57;;;1.70;;
4565;SDS011;2295;51.050;14.608;2022-07-04T06:07:00;2.40;;;1.30;;
4565;SDS011;2295;51.050;14.608;2022-07-04T06:09:28;1.60;;;1.43;;
4565;SDS011;2295;51.050;14.608;2022-07-04T06:11:58;3.23;;;1.77;;
4565;SDS011;2295;51.050;14.608;2022-07-04T06:14:26;1.97;;;1.53;;
4565;SDS011;2295;51.050;14.608;2022-07-04T06:16:54;2.83;;;1.43;;
4565;SDS011;2295;51.050;14.608;2022-07-04T06:19:22;3.67;;;1.80;;
4565;SDS011;2295;51.050;14.608;2022-07-04T06:21:50;2.83;;;1.70;;
4565;SDS011;2295;51.050;14.608;2022-07-04T06:24:18;4.67;;;1.47;;
4565;SDS011;2295;51.050;14.608;2022-07-04T06:26:47;1.83;;;1.63;;
4565;SDS011;2295;51.050;14.608;2022-07-04T06:29:17;3.60;;;1.70;;
4565;SDS011;2295;51.050;14.608;2022-07-04T06:31:45;1.73;;;1.63;;
4565;SDS011;2295;51.050;14.608;2022-07-04T06:34:13;2.27;;;1.47;;
4565;SDS011;2295;51.050;14.608;2022-07-04T06:36:58;3.50;;;1.43;;
4565;SDS011;2295;51.050;14.608;2022-07-04T06:39:26;5.30;;;1.43;;
4565;SDS011;2295;51.050;14.608;2022-07-04T06:41:54;2.40;;;1.33;;
4565;SDS011;2295;51.050;14.608;2022-07-04T06:44:24;2.70;;;1.27;;
4565;SDS011;2295;51.050;14.608;2022-07-04T06:46:52;2.80;;;1.40;;
4565;SDS011;2295;51.050;14.608;2022-07-04T06:49:20;2.40;;;1.20;;
4565;SDS011;2295;51.050;14.608;2022-07-04T06:51:48;3.90;;;1.20;;
4565;SDS011;2295;51.050;14.608;2022-07-04T06:54:16;1.50;;;1.40;;
4565;SDS011;2295;51.050;14.608;2022-07-04T06:56:44;1.43;;;1.33;;
4565;SDS011;2295;51.050;14.608;2022-07-04T06:59:13;1.23;;;1.10;;
4565;SDS011;2295;51.050;14.608;2022-07-04T07:01:42;1.67;;;1.20;;
4565;SDS011;2295;51.050;14.608;2022-07-04T07:04:11;1.20;;;1.00;;
4565;SDS011;2295;51.050;14.608;2022-07-04T07:06:39;3.30;;;1.27;;
4565;SDS011;2295;51.050;14.608;2022-07-04T07:09:07;4.77;;;1.30;;
4565;SDS011;2295;51.050;14.608;2022-07-04T07:11:35;1.37;;;1.10;;
4565;SDS011;2295;51.050;14.608;2022-07-04T07:14:03;2.17;;;1.20;;
4565;SDS011;2295;51.050;14.608;2022-07-04T07:16:31;2.07;;;1.00;;
4565;SDS011;2295;51.050;14.608;2022-07-04T07:19:01;1.20;;;1.10;;
4565;SDS011;2295;51.050;14.608;2022-07-04T07:21:30;2.53;;;1.30;;
4565;SDS011;2295;51.050;14.608;2022-07-04T07:23:58;1.10;;;1.00;;
4565;SDS011;2295;51.050;14.608;2022-07-04T07:26:26;0.80;;;0.80;;
4565;SDS011;2295;51.050;14.608;2022-07-04T07:28:55;2.97;;;1.30;;
4565;SDS011;2295;51.050;14.608;2022-07-04T07:31:23;1.20;;;1.10;;
4565;SDS011;2295;51.050;14.608;2022-07-04T07:33:51;0.97;;;0.90;;
4565;SDS011;2295;51.050;14.608;2022-07-04T07:36:21;3.23;;;1.00;;
4565;SDS011;2295;51.050;14.608;2022-07-04T07:38:49;1.53;;;1.00;;
4565;SDS011;2295;51.050;14.608;2022-07-04T07:41:19;2.33;;;0.83;;
4565;SDS011;2295;51.050;14.608;2022-07-04T07:43:47;2.30;;;0.80;;
4565;SDS011;2295;51.050;14.608;2022-07-04T07:46:15;1.27;;;0.90;;
4565;SDS011;2295;51.050;14.608;2022-07-04T07:48:43;2.30;;;1.33;;
4565;SDS011;2295;51.050;14.608;2022-07-04T07:51:12;1.23;;;0.90;;
4565;SDS011;2295;51.050;14.608;2022-07-04T07:53:43;4.53;;;1.00;;
4565;SDS011;2295;51.050;14.608;2022-07-04T07:56:31;0.80;;;0.80;;
4565;SDS011;2295;51.050;14.608;2022-07-04T07:58:59;3.23;;;1.00;;
4565;SDS011;2295;51.050;14.608;2022-07-04T08:01:28;1.40;;;0.87;;
4565;SDS011;2295;51.050;14.608;2022-07-04T08:03:56;1.00;;;1.00;;
4565;SDS011;2295;51.050;14.608;2022-07-04T08:06:47;0.90;;;0.90;;
4565;SDS011;2295;51.050;14.608;2022-07-04T08:09:37;1.00;;;0.90;;
4565;SDS011;2295;51.050;14.608;2022-07-04T08:12:06;0.80;;;0.80;;
4565;SDS011;2295;51.050;14.608;2022-07-04T08:14:35;1.27;;;0.90;;
4565;SDS011;2295;51.050;14.608;2022-07-04T08:17:03;4.70;;;0.80;;
4565;SDS011;2295;51.050;14.608;2022-07-04T08:19:32;0.83;;;0.83;;
4565;SDS011;2295;51.050;14.608;2022-07-04T08:22:01;1.57;;;0.90;;
4565;SDS011;2295;51.050;14.608;2022-07-04T08:24:42;2.20;;;0.80;;
4565;SDS011;2295;51.050;14.608;2022-07-04T08:27:11;3.17;;;0.90;;
4565;SDS011;2295;51.050;14.608;2022-07-04T08:29:39;1.93;;;0.90;;
4565;SDS011;2295;51.050;14.608;2022-07-04T08:32:08;1.17;;;0.90;;
4565;SDS011;2295;51.050;14.608;2022-07-04T08:34:36;0.83;;;0.70;;
4565;SDS011;2295;51.050;14.608;2022-07-04T08:37:04;0.70;;;0.70;;
4565;SDS011;2295;51.050;14.608;2022-07-04T08:39:33;1.80;;;0.70;;
4565;SDS011;2295;51.050;14.608;2022-07-04T08:42:03;1.93;;;1.00;;
4565;SDS011;2295;51.050;14.608;2022-07-04T08:44:34;2.97;;;1.10;;
4565;SDS011;2295;51.050;14.608;2022-07-04T08:47:08;2.50;;;0.90;;
4565;SDS011;2295;51.050;14.608;2022-07-04T08:49:42;1.40;;;1.30;;
4565;SDS011;2295;51.050;14.608;2022-07-04T08:52:14;1.47;;;1.30;;
4565;SDS011;2295;51.050;14.608;2022-07-04T08:54:51;2.20;;;0.87;;
4565;SDS011;2295;51.050;14.608;2022-07-04T08:57:45;2.33;;;0.90;;
4565;SDS011;2295;51.050;14.608;2022-07-04T09:00:32;2.03;;;0.93;;
4565;SDS011;2295;51.050;14.608;2022-07-04T09:03:02;1.10;;;1.00;;
4565;SDS011;2295;51.050;14.608;2022-07-04T09:05:32;1.57;;;1.47;;
4565;SDS011;2295;51.050;14.608;2022-07-04T09:08:00;0.80;;;0.80;;
4565;SDS011;2295;51.050;14.608;2022-07-04T09:10:30;4.20;;;0.80;;
4565;SDS011;2295;51.050;14.608;2022-07-04T09:13:02;1.30;;;0.90;;
4565;SDS011;2295;51.050;14.608;2022-07-04T09:15:38;1.27;;;0.80;;
4565;SDS011;2295;51.050;14.608;2022-07-04T09:18:08;4.83;;;0.80;;
4565;SDS011;2295;51.050;14.608;2022-07-04T09:20:48;1.37;;;1.00;;
4565;SDS011;2295;51.050;14.608;2022-07-04T09:23:17;2.80;;;0.90;;
4565;SDS011;2295;51.050;14.608;2022-07-04T09:25:46;0.90;;;0.90;;
4565;SDS011;2295;51.050;14.608;2022-07-04T09:28:28;3.83;;;1.00;;
4565;SDS011;2295;51.050;14.608;2022-07-04T09:30:57;1.70;;;0.93;;
4565;SDS011;2295;51.050;14.608;2022-07-04T09:36:12;0.93;;;0.90;;
4565;SDS011;2295;51.050;14.608;2022-07-04T09:38:41;1.43;;;0.83;;
4565;SDS011;2295;51.050;14.608;2022-07-04T09:41:09;0.90;;;0.90;;
4565;SDS011;2295;51.050;14.608;2022-07-04T09:44:00;1.00;;;0.90;;
4565;SDS011;2295;51.050;14.608;2022-07-04T09:46:30;0.83;;;0.83;;
4565;SDS011;2295;51.050;14.608;2022-07-04T09:48:59;1.90;;;0.97;;
4565;SDS011;2295;51.050;14.608;2022-07-04T09:51:37;1.17;;;0.90;;
4565;SDS011;2295;51.050;14.608;2022-07-04T09:54:14;3.87;;;1.13;;
4565;SDS011;2295;51.050;14.608;2022-07-04T09:56:53;1.20;;;1.10;;
4565;SDS011;2295;51.050;14.608;2022-07-04T09:59:24;4.50;;;0.80;;
4565;SDS011;2295;51.050;14.608;2022-07-04T10:02:05;1.27;;;0.70;;
4565;SDS011;2295;51.050;14.608;2022-07-04T10:04:41;2.10;;;0.80;;
4565;SDS011;2295;51.050;14.608;2022-07-04T10:07:10;2.50;;;0.90;;
4565;SDS011;2295;51.050;14.608;2022-07-04T10:09:38;0.83;;;0.80;;
4565;SDS011;2295;51.050;14.608;2022-07-04T10:12:06;1.60;;;0.87;;
4565;SDS011;2295;51.050;14.608;2022-07-04T10:14:38;0.77;;;0.77;;
4565;SDS011;2295;51.050;14.608;2022-07-04T10:17:06;1.23;;;0.87;;
4565;SDS011;2295;51.050;14.608;2022-07-04T10:19:34;0.80;;;0.80;;
4565;SDS011;2295;51.050;14.608;2022-07-04T10:22:03;11.13;;;1.97;;
4565;SDS011;2295;51.050;14.608;2022-07-04T10:24:35;2.03;;;0.90;;
4565;SDS011;2295;51.050;14.608;2022-07-04T10:27:04;12.57;;;1.00;;
4565;SDS011;2295;51.050;14.608;2022-07-04T10:29:32;1.13;;;0.90;;
4565;SDS011;2295;51.050;14.608;2022-07-04T10:32:02;6.00;;;0.90;;
4565;SDS011;2295;51.050;14.608;2022-07-04T10:34:38;3.93;;;1.00;;
4565;SDS011;2295;51.050;14.608;2022-07-04T10:37:07;2.30;;;0.97;;
4565;SDS011;2295;51.050;14.608;2022-07-04T10:39:35;2.30;;;1.00;;
4565;SDS011;2295;51.050;14.608;2022-07-04T10:42:04;5.60;;;0.90;;
4565;SDS011;2295;51.050;14.608;2022-07-04T10:44:32;2.10;;;0.80;;
4565;SDS011;2295;51.050;14.608;2022-07-04T10:47:05;1.20;;;1.00;;
4565;SDS011;2295;51.050;14.608;2022-07-04T10:49:34;2.40;;;1.00;;
4565;SDS011;2295;51.050;14.608;2022-07-04T10:52:09;5.67;;;1.13;;
4565;SDS011;2295;51.050;14.608;2022-07-04T10:54:40;1.90;;;0.90;;
4565;SDS011;2295;51.050;14.608;2022-07-04T10:57:10;1.30;;;1.00;;
4565;SDS011;2295;51.050;14.608;2022-07-04T10:59:41;1.37;;;1.10;;
4565;SDS011;2295;51.050;14.608;2022-07-04T11:02:22;1.10;;;1.00;;
4565;SDS011;2295;51.050;14.608;2022-07-04T11:04:54;2.97;;;1.20;;
4565;SDS011;2295;51.050;14.608;2022-07-04T11:10:24;1.93;;;1.00;;
4565;SDS011;2295;51.050;14.608;2022-07-04T11:15:58;1.33;;;0.97;;
4565;SDS011;2295;51.050;14.608;2022-07-04T11:18:39;1.63;;;0.93;;
4565;SDS011;2295;51.050;14.608;2022-07-04T11:21:21;1.23;;;1.07;;
4565;SDS011;2295;51.050;14.608;2022-07-04T11:23:52;1.03;;;0.90;;
4565;SDS011;2295;51.050;14.608;2022-07-04T11:26:21;1.20;;;1.10;;
4565;SDS011;2295;51.050;14.608;2022-07-04T11:28:51;2.40;;;1.27;;
4565;SDS011;2295;51.050;14.608;2022-07-04T11:31:20;0.90;;;0.90;;
4565;SDS011;2295;51.050;14.608;2022-07-04T11:33:53;1.00;;;0.90;;
4565;SDS011;2295;51.050;14.608;2022-07-04T11:36:22;2.57;;;1.00;;
4565;SDS011;2295;51.050;14.608;2022-07-04T11:38:51;4.20;;;1.00;;
4565;SDS011;2295;51.050;14.608;2022-07-04T11:41:22;2.50;;;1.10;;
4565;SDS011;2295;51.050;14.608;2022-07-04T11:44:10;1.97;;;1.00;;
4565;SDS011;2295;51.050;14.608;2022-07-04T11:47:01;2.07;;;1.03;;
4565;SDS011;2295;51.050;14.608;2022-07-04T11:49:36;6.77;;;1.00;;
4565;SDS011;2295;51.050;14.608;2022-07-04T11:52:09;6.80;;;1.07;;
4565;SDS011;2295;51.050;14.608;2022-07-04T11:54:39;1.30;;;1.20;;
4565;SDS011;2295;51.050;14.608;2022-07-04T11:57:20;2.23;;;1.00;;
4565;SDS011;2295;51.050;14.608;2022-07-04T11:59:54;1.23;;;0.90;;
4565;SDS011;2295;51.050;14.608;2022-07-04T12:02:23;4.67;;;0.87;;
4565;SDS011;2295;51.050;14.608;2022-07-04T12:04:55;2.07;;;1.30;;
4565;SDS011;2295;51.050;14.608;2022-07-04T12:07:24;1.43;;;1.00;;
4565;SDS011;2295;51.050;14.608;2022-07-04T12:09:54;4.00;;;1.17;;
4565;SDS011;2295;51.050;14.608;2022-07-04T12:12:23;1.93;;;1.00;;
4565;SDS011;2295;51.050;14.608;2022-07-04T12:14:58;1.73;;;1.10;;
4565;SDS011;2295;51.050;14.608;2022-07-04T12:17:29;1.20;;;1.10;;
4565;SDS011;2295;51.050;14.608;2022-07-04T12:20:01;4.70;;;1.23;;
4565;SDS011;2295;51.050;14.608;2022-07-04T12:22:32;1.30;;;1.20;;
4565;SDS011;2295;51.050;14.608;2022-07-04T12:25:02;1.40;;;0.97;;
4565;SDS011;2295;51.050;14.608;2022-07-04T12:27:33;2.00;;;1.20;;
4565;SDS011;2295;51.050;14.608;2022-07-04T12:30:03;1.97;;;1.20;;
4565;SDS011;2295;51.050;14.608;2022-07-04T12:32:45;1.97;;;1.80;;
4565;SDS011;2295;51.050;14.608;2022-07-04T12:38:08;4.60;;;1.50;;
4565;SDS011;2295;51.050;14.608;2022-07-04T12:40:49;2.97;;;1.30;;
4565;SDS011;2295;51.050;14.608;2022-07-04T12:43:25;1.77;;;1.30;;
4565;SDS011;2295;51.050;14.608;2022-07-04T12:46:11;1.30;;;1.00;;
4565;SDS011;2295;51.050;14.608;2022-07-04T12:48:41;1.53;;;1.27;;
4565;SDS011;2295;51.050;14.608;2022-07-04T12:51:12;3.33;;;1.33;;
4565;SDS011;2295;51.050;14.608;2022-07-04T12:53:45;5.03;;;1.03;;
4565;SDS011;2295;51.050;14.608;2022-07-04T12:56:26;1.10;;;1.00;;
4565;SDS011;2295;51.050;14.608;2022-07-04T12:58:56;5.80;;;1.07;;
4565;SDS011;2295;51.050;14.608;2022-07-04T13:01:25;0.87;;;0.87;;
4565;SDS011;2295;51.050;14.608;2022-07-04T13:03:54;1.37;;;1.27;;
4565;SDS011;2295;51.050;14.608;2022-07-04T13:06:23;2.93;;;1.20;;
4565;SDS011;2295;51.050;14.608;2022-07-04T13:08:53;1.70;;;1.10;;
4565;SDS011;2295;51.050;14.608;2022-07-04T13:11:22;1.70;;;1.60;;
4565;SDS011;2295;51.050;14.608;2022-07-04T13:14:07;14.07;;;1.47;;
4565;SDS011;2295;51.050;14.608;2022-07-04T13:16:36;11.90;;;1.63;;
4565;SDS011;2295;51.050;14.608;2022-07-04T13:19:06;2.60;;;1.37;;
4565;SDS011;2295;51.050;14.608;2022-07-04T13:21:36;2.00;;;1.50;;
4565;SDS011;2295;51.050;14.608;2022-07-04T13:24:05;2.20;;;1.23;;
4565;SDS011;2295;51.050;14.608;2022-07-04T13:26:34;1.40;;;1.30;;
4565;SDS011;2295;51.050;14.608;2022-07-04T13:29:04;1.50;;;1.40;;
4565;SDS011;2295;51.050;14.608;2022-07-04T13:31:37;1.40;;;1.30;;
4565;SDS011;2295;51.050;14.608;2022-07-04T13:34:06;1.30;;;1.20;;
4565;SDS011;2295;51.050;14.608;2022-07-04T13:36:34;6.10;;;1.30;;
4565;SDS011;2295;51.050;14.608;2022-07-04T13:39:04;2.90;;;1.33;;
4565;SDS011;2295;51.050;14.608;2022-07-04T13:41:32;4.80;;;1.57;;
4565;SDS011;2295;51.050;14.608;2022-07-04T13:44:03;2.00;;;1.80;;
4565;SDS011;2295;51.050;14.608;2022-07-04T13:46:32;6.00;;;1.37;;
4565;SDS011;2295;51.050;14.608;2022-07-04T13:49:02;1.50;;;1.40;;
4565;SDS011;2295;51.050;14.608;2022-07-04T13:51:39;4.13;;;1.93;;
4565;SDS011;2295;51.050;14.608;2022-07-04T13:54:08;4.63;;;1.57;;
4565;SDS011;2295;51.050;14.608;2022-07-04T13:56:37;3.13;;;2.70;;
4565;SDS011;2295;51.050;14.608;2022-07-04T13:59:06;6.83;;;1.80;;
4565;SDS011;2295;51.050;14.608;2022-07-04T14:01:34;2.30;;;1.57;;
4565;SDS011;2295;51.050;14.608;2022-07-04T14:04:03;3.20;;;1.53;;
4565;SDS011;2295;51.050;14.608;2022-07-04T14:06:32;2.30;;;1.67;;
4565;SDS011;2295;51.050;14.608;2022-07-04T14:09:02;3.40;;;1.43;;
4565;SDS011;2295;51.050;14.608;2022-07-04T14:11:30;3.10;;;1.60;;
4565;SDS011;2295;51.050;14.608;2022-07-04T14:13:58;8.20;;;2.20;;
4565;SDS011;2295;51.050;14.608;2022-07-04T14:16:27;3.63;;;2.20;;
4565;SDS011;2295;51.050;14.608;2022-07-04T14:18:55;3.38;;;1.90;;
4565;SDS011;2295;51.050;14.608;2022-07-04T14:21:23;5.23;;;2.20;;
4565;SDS011;2295;51.050;14.608;2022-07-04T14:23:51;10.80;;;2.67;;
4565;SDS011;2295;51.050;14.608;2022-07-04T14:26:22;3.53;;;2.87;;
4565;SDS011;2295;51.050;14.608;2022-07-04T14:28:51;6.10;;;3.00;;
4565;SDS011;2295;51.050;14.608;2022-07-04T14:31:20;3.07;;;2.87;;
4565;SDS011;2295;51.050;14.608;2022-07-04T14:33:49;3.57;;;2.73;;
4565;SDS011;2295;51.050;14.608;2022-07-04T14:36:18;4.90;;;3.03;;
4565;SDS011;2295;51.050;14.608;2022-07-04T14:38:47;6.00;;;2.70;;
4565;SDS011;2295;51.050;14.608;2022-07-04T14:41:15;4.00;;;2.60;;
4565;SDS011;2295;51.050;14.608;2022-07-04T14:43:45;7.63;;;2.87;;
4565;SDS011;2295;51.050;14.608;2022-07-04T14:46:13;4.57;;;3.47;;
4565;SDS011;2295;51.050;14.608;2022-07-04T14:48:41;2.93;;;2.73;;
4565;SDS011;2295;51.050;14.608;2022-07-04T14:51:09;2.30;;;2.10;;
4565;SDS011;2295;51.050;14.608;2022-07-04T14:53:38;3.83;;;2.30;;
4565;SDS011;2295;51.050;14.608;2022-07-04T14:56:06;2.10;;;1.87;;
4565;SDS011;2295;51.050;14.608;2022-07-04T14:58:34;2.13;;;1.80;;
4565;SDS011;2295;51.050;14.608;2022-07-04T15:01:04;1.97;;;1.83;;
4565;SDS011;2295;51.050;14.608;2022-07-04T15:03:33;3.53;;;1.93;;
4565;SDS011;2295;51.050;14.608;2022-07-04T15:06:01;1.90;;;1.80;;
4565;SDS011;2295;51.050;14.608;2022-07-04T15:08:30;1.80;;;1.70;;
4565;SDS011;2295;51.050;14.608;2022-07-04T15:10:58;3.70;;;1.83;;
4565;SDS011;2295;51.050;14.608;2022-07-04T15:13:26;2.07;;;1.93;;
4565;SDS011;2295;51.050;14.608;2022-07-04T15:15:55;2.60;;;2.40;;
4565;SDS011;2295;51.050;14.608;2022-07-04T15:18:45;2.30;;;1.70;;
4565;SDS011;2295;51.050;14.608;2022-07-04T15:21:13;8.80;;;2.00;;
4565;SDS011;2295;51.050;14.608;2022-07-04T15:23:59;2.80;;;1.80;;
4565;SDS011;2295;51.050;14.608;2022-07-04T15:26:41;5.00;;;1.90;;
4565;SDS011;2295;51.050;14.608;2022-07-04T15:29:10;1.90;;;1.80;;
4565;SDS011;2295;51.050;14.608;2022-07-04T15:31:40;3.87;;;1.70;;